Aérodrome :
LOGIN :

S'inscrire | Disclaimer

   EN    FR    IT 

 










Légende :    VFR   VFR Marginal   IFR   IFR Intensif   IFR Très Intensif
Visi : 
Plafond : 
>= 8 km
>= 3000ft
5 à 8 km
1000 à 3000 ft
1500m à 5 km
500 à 1000 ft
800 à 1500m
200 à 500 ft
< 800m
< 200 ft
Symboles :   Orages  Brouillard  Fortes neiges  Fortes précipitations  Vent > 20 kt
SIGMETs :   Divers  Orages  Givrage  Turbulence  Onde Orograph.  Cendres Volcan.






- Altitude de l'aérodrome : 1460 ft


LSMA - Alpnach

DERNIER METAR :
  • 281250Z 05009KT 010V080 CAVOK 21/08 Q1026 RMK BLU

METARs EXPIRÉS :
  • 281220Z 07011KT 030V100 9999 FEW110 21/08 Q1026 RMK BLU+
  • 281150Z 05010KT 020V080 9999 FEW110 21/08 Q1027 RMK BLU+
  • 281120Z 05010KT 010V110 9999 FEW110 21/08 Q1027 RMK BLU+
  • 281050Z AUTO 05011KT 9999NDV SCT100 20/07 Q1027 RMK
  • 281020Z AUTO 05011KT 020V100 9999NDV BKN110 19/08 Q1027 RMK

Prévision TAF périmée.



MET'MAP, la Météo Aéronautique d'un coup d'oeil ! - Copyright ORBIFLY Décembre 2007 - Disclaimer

ORBIFLY MET'MAP TEAM :

Programmation & Développement : Alexandra Zaïnal
Sur une idée originale de : Baudouin d'Aumeries
Assistance à la programmation : Marc-Olivier Méhu
Soutien technique & logistique : Manuel Goepfert

Contact : metmap@orbifly.com




SOURCES & CREDITS :

   NOAA